首页
METAR-TAF:

METAR-TAF

机场 :

基隆拿國際機場

基隆拿, 不列颠哥伦比亚, 加拿大

纬度: 49-58N, 经度: 119-23W, 海拔: 430米

当前天气观测

该预报发布于44分钟前的09:00 UTC
静风
温度 4°C
湿度 93%
气压 1017 hPa
能見度: 14.5公里
少量云层高于2500英尺
阴天层高于3200英尺

METAR: CYLW 150900Z AUTO 00000KT 9SM FEW025 OVC032 04/03 A3003 RMK SLP182

时间: 01:44 (09:44 UTC)

预报

该预报发布于3小时和6分钟前的06:38 UTC
预报有效从15日的 07点(UTC)到 15日的 19点(UTC)
风速3节,风向多变
能見度: 10公里
散云层高于1500英尺
多云层高于3000英尺
短暂存在
从 15日的 07点(UTC)到 15日的 16点(UTC)
能見度: 8.0公里
多云层高于1500英尺
小雨, 轻雾
从 15日的 1600点(UTC)
风速3节,风向多变
能見度: 10公里
散云层高于1200英尺
阴天层高于2500英尺
短暂存在
从 15日的 16点(UTC)到 15日的 19点(UTC)
能見度: 6.4公里
多云层高于1200英尺
小雨, 轻雾

TAF: CYLW 150638Z 1507/1519 VRB03KT P6SM SCT015 BKN030 TEMPO 1507/1516 5SM -RA BR BKN015 FM151600 VRB03KT P6SM SCT012 OVC025 TEMPO 1516/1519 4SM -RA BR BKN012 RMK FCST BASED ON AUTO OBS. NXT FCST BY 151300Z

超过4000个机场的气象观测和天气预报(METAR&TAF报告)。

可查询的气象台以黄色和红色小点在地图上表示。

将鼠标移到小点上方,可查看气象台名称。

然后点击查看天气观测和预报。

如需切换地图:点击带黑十字的绿色按钮放大地图;点击带横线的绿色按钮缩小地图;或者点击绿色箭头查看邻近地区的地图。


METAR-TAF: